createdAt,value
2023-02-11T00:00:42.621Z,2.10
2023-02-11T00:03:09.880Z,2.30
2023-02-11T00:05:36.637Z,2.10
2023-02-11T00:08:03.729Z,2.00
2023-02-11T00:10:30.454Z,1.90
2023-02-11T00:12:57.083Z,2.20
2023-02-11T00:15:23.682Z,2.40
2023-02-11T00:17:50.394Z,2.10
2023-02-11T00:20:17.239Z,2.10
2023-02-11T00:22:43.878Z,2.30
2023-02-11T00:25:10.521Z,1.90
2023-02-11T00:27:37.629Z,2.20
2023-02-11T00:30:05.418Z,2.00
2023-02-11T00:32:32.204Z,2.10
2023-02-11T00:34:58.873Z,1.90
2023-02-11T00:37:25.561Z,1.90
2023-02-11T00:39:52.292Z,1.90
2023-02-11T00:42:18.892Z,2.30
2023-02-11T00:44:45.656Z,2.60
2023-02-11T00:47:12.560Z,2.20
2023-02-11T00:49:40.478Z,1.90
2023-02-11T00:52:07.378Z,2.30
2023-02-11T00:54:34.596Z,2.80
2023-02-11T00:57:01.433Z,2.70
2023-02-11T00:59:28.371Z,2.60
2023-02-11T01:01:55.077Z,2.30
2023-02-11T01:04:21.808Z,2.50
2023-02-11T01:06:52.235Z,2.40
2023-02-11T01:09:21.216Z,2.40
2023-02-11T01:11:48.261Z,2.70
2023-02-11T01:14:15.062Z,2.10
2023-02-11T01:16:42.580Z,2.70
2023-02-11T01:19:09.817Z,2.60
2023-02-11T01:21:36.717Z,2.20
2023-02-11T01:24:03.645Z,3.10
2023-02-11T01:26:30.398Z,2.40
2023-02-11T01:29:00.140Z,3.10
2023-02-11T01:31:27.890Z,2.60
2023-02-11T01:33:54.674Z,2.20
2023-02-11T01:36:21.320Z,2.40
2023-02-11T01:38:49.932Z,2.40
2023-02-11T01:41:16.746Z,2.30
2023-02-11T01:43:50.160Z,2.70
2023-02-11T01:46:31.930Z,2.90
2023-02-11T01:49:07.432Z,3.20
2023-02-11T01:51:39.491Z,2.60
2023-02-11T01:54:27.709Z,2.90
2023-02-11T01:57:17.123Z,2.20
2023-02-11T01:59:54.889Z,2.60
2023-02-11T02:02:27.285Z,2.60
2023-02-11T02:07:46.078Z,2.30
2023-02-11T02:10:18.840Z,2.40
2023-02-11T02:12:46.371Z,2.10
2023-02-11T02:15:20.447Z,2.10
2023-02-11T02:17:58.759Z,2.10
2023-02-11T02:20:47.123Z,1.70
2023-02-11T02:23:39.747Z,2.20
2023-02-11T02:26:31.400Z,2.50
2023-02-11T02:29:19.299Z,2.10
2023-02-11T02:32:03.853Z,2.30
2023-02-11T02:34:42.150Z,2.20
2023-02-11T02:37:17.381Z,2.40
2023-02-11T02:39:46.612Z,2.10
2023-02-11T02:42:14.517Z,2.00
2023-02-11T02:44:41.250Z,1.70
2023-02-11T02:47:07.868Z,2.40
2023-02-11T02:49:34.498Z,2.40
2023-02-11T02:52:18.550Z,2.40
2023-02-11T02:55:11.773Z,1.70
2023-02-11T02:57:50.415Z,2.00
2023-02-11T03:00:23.561Z,2.00
2023-02-11T03:02:59.386Z,1.90
2023-02-11T03:05:45.256Z,2.20
2023-02-11T03:08:30.559Z,2.70
2023-02-11T03:10:59.225Z,4.60
2023-02-11T03:13:33.571Z,5.20
2023-02-11T03:16:08.538Z,2.90
2023-02-11T03:18:38.249Z,5.80
2023-02-11T03:21:07.266Z,6.60
2023-02-11T03:23:41.361Z,4.40
2023-02-11T03:26:10.403Z,2.70
2023-02-11T03:28:52.579Z,3.50
2023-02-11T03:31:32.892Z,2.40
2023-02-11T03:34:08.750Z,3.40
2023-02-11T03:37:04.378Z,2.90
2023-02-11T03:39:37.770Z,2.50
2023-02-11T03:42:08.705Z,2.70
2023-02-11T03:44:42.092Z,2.40
2023-02-11T03:47:12.443Z,2.80
2023-02-11T03:49:42.540Z,2.40
2023-02-11T03:52:11.564Z,2.20
2023-02-11T03:54:42.253Z,2.00
2023-02-11T03:57:09.237Z,2.30
2023-02-11T03:59:51.374Z,2.30
2023-02-11T04:02:18.748Z,2.20
2023-02-11T04:04:46.375Z,2.10
2023-02-11T04:07:13.236Z,2.10
2023-02-11T04:09:39.894Z,2.30
2023-02-11T04:12:06.927Z,2.70
2023-02-11T04:14:33.709Z,2.70
2023-02-11T04:17:00.371Z,1.90
2023-02-11T04:19:27.042Z,2.20
2023-02-11T04:21:53.632Z,2.30
2023-02-11T04:24:20.296Z,2.10
2023-02-11T04:26:47.049Z,2.20
2023-02-11T04:29:13.687Z,2.30
2023-02-11T04:31:40.506Z,2.70
2023-02-11T04:34:07.114Z,2.70
2023-02-11T04:36:33.794Z,2.20
2023-02-11T04:39:00.524Z,2.30
2023-02-11T04:41:27.327Z,2.00
2023-02-11T04:43:53.938Z,2.30
2023-02-11T04:46:20.779Z,2.00
2023-02-11T04:48:47.475Z,2.10
2023-02-11T04:51:14.342Z,2.20
2023-02-11T04:53:41.334Z,1.90
2023-02-11T04:56:08.165Z,1.90
2023-02-11T04:58:34.936Z,2.20
2023-02-11T05:01:14.064Z,2.10
2023-02-11T05:03:41.232Z,2.30
2023-02-11T05:06:09.770Z,2.40
2023-02-11T05:08:36.382Z,2.10
2023-02-11T05:11:03.196Z,2.10
2023-02-11T05:13:30.189Z,2.50
2023-02-11T05:15:57.075Z,2.20
2023-02-11T05:18:24.086Z,2.10
2023-02-11T05:20:50.720Z,2.00
2023-02-11T05:23:17.371Z,1.70
2023-02-11T05:25:43.993Z,1.90
2023-02-11T05:28:10.680Z,2.50
2023-02-11T05:30:37.420Z,2.20
2023-02-11T05:33:04.116Z,2.00
2023-02-11T05:35:30.763Z,2.30
2023-02-11T05:37:57.403Z,2.50
2023-02-11T05:40:24.037Z,2.50
2023-02-11T05:42:50.705Z,2.90
2023-02-11T05:45:17.336Z,2.60
2023-02-11T05:47:43.922Z,2.80
2023-02-11T05:50:10.546Z,2.30
2023-02-11T05:52:37.238Z,2.40
2023-02-11T05:55:04.403Z,2.70
2023-02-11T05:57:30.997Z,2.60
2023-02-11T05:59:57.647Z,3.10
2023-02-11T06:02:24.449Z,3.20
2023-02-11T06:04:51.129Z,3.00
2023-02-11T06:09:46.335Z,3.00
2023-02-11T06:12:13.119Z,3.10
2023-02-11T06:14:39.906Z,3.20
2023-02-11T06:17:06.619Z,2.20
2023-02-11T06:19:33.349Z,2.70
2023-02-11T06:22:00.108Z,2.30
2023-02-11T06:24:51.087Z,2.70
2023-02-11T06:27:13.994Z,2.70
2023-02-11T06:29:40.741Z,2.70
2023-02-11T06:32:10.089Z,3.00
2023-02-11T06:34:42.790Z,2.90
2023-02-11T06:37:09.428Z,2.20
2023-02-11T06:39:36.092Z,3.30
2023-02-11T06:42:02.800Z,3.10
2023-02-11T06:44:29.401Z,2.70
2023-02-11T06:49:22.582Z,3.00
2023-02-11T06:51:49.188Z,3.30
2023-02-11T06:54:15.913Z,3.00
2023-02-11T06:56:42.554Z,3.00
2023-02-11T06:59:12.944Z,2.30
2023-02-11T07:01:39.565Z,2.90
2023-02-11T07:04:06.897Z,2.60
2023-02-11T07:06:34.020Z,2.60
2023-02-11T07:09:00.723Z,2.80
2023-02-11T07:11:29.151Z,2.50
2023-02-11T07:14:02.839Z,3.10
2023-02-11T07:16:29.977Z,3.10
2023-02-11T07:18:56.592Z,3.40
2023-02-11T07:21:24.389Z,5.60
2023-02-11T07:23:52.017Z,5.50
2023-02-11T07:26:23.009Z,3.40
2023-02-11T07:28:50.954Z,3.10
2023-02-11T07:31:27.837Z,3.30
2023-02-11T07:33:57.028Z,4.40
2023-02-11T07:36:23.819Z,2.90
2023-02-11T07:38:50.545Z,3.50
2023-02-11T07:41:21.345Z,3.60
2023-02-11T07:43:48.427Z,4.40
2023-02-11T07:46:20.896Z,4.50
2023-02-11T07:48:47.758Z,6.00
2023-02-11T07:51:20.519Z,5.30
2023-02-11T07:53:47.601Z,4.00
2023-02-11T07:56:15.879Z,3.80
2023-02-11T07:58:43.686Z,4.10
2023-02-11T08:01:12.875Z,4.80
2023-02-11T08:03:41.397Z,5.40
2023-02-11T08:06:11.222Z,3.70
2023-02-11T08:08:37.940Z,4.50
2023-02-11T08:11:13.155Z,4.60
2023-02-11T08:13:40.395Z,3.50
2023-02-11T08:16:07.998Z,4.60
2023-02-11T08:18:35.365Z,4.00
2023-02-11T08:21:06.739Z,3.70
2023-02-11T08:23:33.924Z,3.70
2023-02-11T08:26:05.376Z,4.10
2023-02-11T08:28:32.219Z,4.50
2023-02-11T08:31:04.637Z,4.20
2023-02-11T08:33:31.296Z,4.10
2023-02-11T08:35:57.947Z,4.50
2023-02-11T08:38:24.543Z,5.00
2023-02-11T08:40:51.429Z,5.30
2023-02-11T08:43:18.314Z,5.20
2023-02-11T08:45:45.070Z,5.20
2023-02-11T08:48:11.682Z,5.80
2023-02-11T08:50:39.782Z,5.50
2023-02-11T08:53:06.423Z,5.10
2023-02-11T08:55:33.033Z,4.20
2023-02-11T08:57:59.661Z,5.20
2023-02-11T09:00:26.305Z,4.10
2023-02-11T09:02:53.605Z,5.30
2023-02-11T09:05:20.208Z,3.50
2023-02-11T09:07:46.838Z,4.10
2023-02-11T09:10:13.510Z,6.20
2023-02-11T09:12:40.148Z,5.30
2023-02-11T09:15:07.259Z,3.90
2023-02-11T09:17:33.921Z,6.20
2023-02-11T09:20:00.814Z,6.50
2023-02-11T09:22:27.468Z,8.00
2023-02-11T09:24:54.115Z,6.60
2023-02-11T09:27:20.866Z,6.80
2023-02-11T09:29:47.541Z,6.20
2023-02-11T09:32:14.341Z,6.00
2023-02-11T09:34:41.426Z,7.10
2023-02-11T09:37:08.096Z,7.40
2023-02-11T09:39:34.723Z,7.50
2023-02-11T09:42:07.074Z,7.50
2023-02-11T09:47:06.359Z,8.50
2023-02-11T09:49:59.056Z,9.40
2023-02-11T09:52:44.008Z,9.80
2023-02-11T09:55:37.744Z,8.70
2023-02-11T09:58:12.613Z,13.00
2023-02-11T10:00:52.907Z,12.00
2023-02-11T10:03:48.770Z,8.80
2023-02-11T10:06:40.286Z,8.00
2023-02-11T10:09:48.112Z,6.60
2023-02-11T10:12:20.649Z,10.50
2023-02-11T10:15:06.036Z,10.70
2023-02-11T10:17:48.186Z,11.70
2023-02-11T10:20:20.929Z,9.10
2023-02-11T10:22:54.568Z,12.40
2023-02-11T10:25:36.579Z,10.90
2023-02-11T10:28:19.700Z,11.50
2023-02-11T10:30:53.104Z,10.30
2023-02-11T10:33:47.911Z,10.30
2023-02-11T10:36:17.577Z,11.90
2023-02-11T10:38:45.289Z,9.90
2023-02-11T10:41:26.285Z,11.50
2023-02-11T10:43:53.035Z,11.30
2023-02-11T10:46:24.366Z,12.80
2023-02-11T10:48:54.020Z,14.00
2023-02-11T10:51:25.556Z,10.60
2023-02-11T10:54:04.276Z,12.40
2023-02-11T10:56:34.649Z,12.20
2023-02-11T10:59:20.343Z,12.00
2023-02-11T11:02:00.979Z,13.90
2023-02-11T11:04:30.904Z,13.90
2023-02-11T11:07:18.163Z,13.50
2023-02-11T11:10:02.558Z,13.70
2023-02-11T11:12:31.699Z,14.80
2023-02-11T11:14:59.936Z,10.40
2023-02-11T11:17:29.897Z,14.30
2023-02-11T11:20:20.414Z,14.10
2023-02-11T11:22:52.762Z,15.10
2023-02-11T11:25:30.614Z,14.50
2023-02-11T11:28:01.015Z,14.60
2023-02-11T11:30:34.059Z,9.30
2023-02-11T11:33:02.026Z,13.70
2023-02-11T11:35:33.066Z,13.50
2023-02-11T11:38:05.403Z,13.00
2023-02-11T11:40:34.218Z,13.90
2023-02-11T11:43:30.163Z,13.50
2023-02-11T11:45:59.688Z,12.10
2023-02-11T11:48:40.334Z,12.60
2023-02-11T11:51:12.159Z,11.70
2023-02-11T11:53:38.796Z,13.70
2023-02-11T11:56:19.978Z,18.80
2023-02-11T11:58:47.225Z,16.70
2023-02-11T12:01:38.177Z,24.10
2023-02-11T12:04:28.557Z,34.90
2023-02-11T12:07:25.714Z,45.40
2023-02-11T12:10:15.162Z,17.30
2023-02-11T12:12:55.924Z,30.40
2023-02-11T12:15:30.035Z,18.60
2023-02-11T12:18:24.828Z,16.10
2023-02-11T12:21:04.344Z,13.00
2023-02-11T12:24:07.434Z,15.00
2023-02-11T12:26:53.338Z,12.20
2023-02-11T12:29:31.942Z,12.80
2023-02-11T12:32:25.665Z,12.30
2023-02-11T12:35:01.661Z,12.10
2023-02-11T12:37:49.600Z,9.70
2023-02-11T12:40:20.135Z,11.70
2023-02-11T12:43:18.032Z,11.60
2023-02-11T12:46:00.955Z,11.60
2023-02-11T12:49:00.294Z,11.40
2023-02-11T12:51:42.101Z,10.90
2023-02-11T12:54:21.727Z,10.80
2023-02-11T12:57:07.456Z,11.30
2023-02-11T13:00:11.873Z,11.30
2023-02-11T13:02:49.624Z,8.90
2023-02-11T13:05:25.053Z,11.00
2023-02-11T13:07:56.038Z,10.60
2023-02-11T13:10:28.154Z,10.90
2023-02-11T13:13:16.088Z,11.70
2023-02-11T13:15:58.697Z,10.50
2023-02-11T13:19:16.833Z,12.50
2023-02-11T13:22:11.424Z,13.60
2023-02-11T13:25:06.151Z,12.60
2023-02-11T13:27:44.034Z,15.80
2023-02-11T13:30:28.182Z,12.80
2023-02-11T13:32:54.851Z,13.80
2023-02-11T13:35:32.329Z,11.40
2023-02-11T13:38:01.535Z,12.70
2023-02-11T13:40:39.599Z,14.10
2023-02-11T13:45:38.641Z,10.90
2023-02-11T13:48:13.639Z,11.20
2023-02-11T13:50:48.481Z,12.20
2023-02-11T13:53:17.140Z,13.10
2023-02-11T13:55:47.389Z,13.90
2023-02-11T13:58:13.969Z,13.70
2023-02-11T14:00:40.596Z,13.80
2023-02-11T14:03:32.202Z,15.10
2023-02-11T14:06:26.742Z,12.70
2023-02-11T14:09:09.186Z,14.20
2023-02-11T14:11:41.902Z,13.20
2023-02-11T14:14:16.245Z,12.10
2023-02-11T14:16:58.258Z,12.70
2023-02-11T14:19:30.797Z,12.30
2023-02-11T14:22:04.318Z,11.00
2023-02-11T14:24:33.948Z,10.60
2023-02-11T14:27:00.483Z,11.20
2023-02-11T14:29:58.290Z,11.40
2023-02-11T14:32:56.008Z,10.60
2023-02-11T14:35:41.738Z,11.40
2023-02-11T14:38:35.796Z,11.10
2023-02-11T14:41:22.480Z,10.70
2023-02-11T14:43:53.069Z,11.20
2023-02-11T14:46:22.327Z,11.10
2023-02-11T14:48:53.396Z,11.20
2023-02-11T14:51:27.833Z,12.50
2023-02-11T14:54:15.289Z,11.30
2023-02-11T14:56:42.458Z,11.50
2023-02-11T14:59:21.205Z,11.40
2023-02-11T15:01:51.211Z,10.20
2023-02-11T15:04:32.874Z,9.50
2023-02-11T15:07:04.845Z,9.10
2023-02-11T15:09:41.297Z,9.70
2023-02-11T15:12:20.243Z,9.30
2023-02-11T15:14:49.590Z,9.40
2023-02-11T15:17:22.242Z,9.30
2023-02-11T15:19:53.275Z,9.40
2023-02-11T15:22:24.070Z,8.60
2023-02-11T15:25:03.999Z,10.20
2023-02-11T15:27:42.393Z,10.90
2023-02-11T15:30:24.591Z,9.70
2023-02-11T15:33:00.390Z,8.70
2023-02-11T15:35:28.800Z,8.80
2023-02-11T15:37:57.431Z,8.10
2023-02-11T15:40:30.170Z,8.80
2023-02-11T15:42:59.950Z,10.30
2023-02-11T15:45:32.694Z,9.20
2023-02-11T15:48:21.676Z,10.50
2023-02-11T15:50:52.966Z,10.50
2023-02-11T15:53:28.953Z,10.60
2023-02-11T15:56:17.619Z,9.80
2023-02-11T15:58:47.619Z,9.40
2023-02-11T16:01:14.499Z,10.10
2023-02-11T16:03:43.107Z,10.10
2023-02-11T16:06:25.005Z,10.80
2023-02-11T16:09:22.276Z,10.50
2023-02-11T16:11:48.913Z,11.00
2023-02-11T16:14:27.836Z,12.20
2023-02-11T16:16:56.015Z,11.20
2023-02-11T16:19:25.933Z,11.30
2023-02-11T16:21:54.396Z,12.70
2023-02-11T16:24:28.242Z,13.10
2023-02-11T16:27:03.420Z,12.90
2023-02-11T16:29:32.489Z,12.40
2023-02-11T16:32:09.334Z,13.20
2023-02-11T16:34:37.237Z,13.50
2023-02-11T16:37:05.554Z,13.50
2023-02-11T16:39:32.622Z,16.50
2023-02-11T16:42:00.444Z,14.90
2023-02-11T16:44:28.207Z,15.00
2023-02-11T16:46:55.813Z,17.40
2023-02-11T16:49:51.926Z,19.10
2023-02-11T16:52:20.328Z,16.10
2023-02-11T16:54:46.969Z,16.70
2023-02-11T16:57:15.879Z,18.00
2023-02-11T16:59:43.097Z,16.00
2023-02-11T17:02:22.930Z,16.60
2023-02-11T17:04:52.815Z,16.50
2023-02-11T17:07:19.548Z,16.80
2023-02-11T17:09:46.223Z,17.40
2023-02-11T17:12:12.873Z,18.50
2023-02-11T17:14:39.562Z,18.70
2023-02-11T17:17:06.357Z,20.80
2023-02-11T17:19:33.011Z,19.40
2023-02-11T17:21:59.604Z,18.30
2023-02-11T17:24:26.223Z,16.60
2023-02-11T17:26:52.996Z,16.20
2023-02-11T17:29:23.224Z,16.70
2023-02-11T17:31:53.927Z,15.20
2023-02-11T17:34:22.672Z,15.60
2023-02-11T17:36:49.443Z,15.90
2023-02-11T17:39:16.339Z,14.00
2023-02-11T17:41:43.023Z,14.50
2023-02-11T17:44:12.574Z,15.00
2023-02-11T17:46:39.442Z,15.30
2023-02-11T17:49:06.147Z,15.20
2023-02-11T17:51:35.086Z,15.70
2023-02-11T17:54:04.937Z,15.90
2023-02-11T17:56:33.271Z,15.40
2023-02-11T17:59:00.010Z,15.20
2023-02-11T18:01:28.144Z,14.00
2023-02-11T18:03:54.947Z,15.30
2023-02-11T18:06:21.963Z,15.70
2023-02-11T18:08:49.193Z,15.50
2023-02-11T18:11:16.438Z,15.50
2023-02-11T18:13:51.541Z,14.80
2023-02-11T18:16:18.292Z,15.80
2023-02-11T18:18:44.992Z,15.00
2023-02-11T18:21:16.157Z,15.30
2023-02-11T18:23:43.885Z,15.10
2023-02-11T18:26:12.792Z,14.50
2023-02-11T18:28:39.963Z,18.10
2023-02-11T18:31:07.979Z,21.90
2023-02-11T18:33:37.244Z,17.10
2023-02-11T18:36:08.804Z,15.50
2023-02-11T18:38:36.260Z,17.30
2023-02-11T18:41:04.186Z,15.10
2023-02-11T18:43:33.829Z,16.10
2023-02-11T18:46:02.185Z,16.60
2023-02-11T18:48:29.205Z,19.90
2023-02-11T18:50:56.077Z,19.20
2023-02-11T18:53:25.076Z,19.00
2023-02-11T18:55:53.710Z,19.20
2023-02-11T18:58:21.465Z,19.60
2023-02-11T19:00:49.244Z,20.90
2023-02-11T19:03:16.638Z,19.40
2023-02-11T19:05:48.850Z,17.70
2023-02-11T19:10:44.861Z,16.80
2023-02-11T19:13:12.681Z,16.60
2023-02-11T19:15:46.348Z,17.10
2023-02-11T19:18:15.033Z,16.50
2023-02-11T19:20:43.463Z,15.80
2023-02-11T19:23:11.064Z,16.60
2023-02-11T19:25:38.236Z,16.10
2023-02-11T19:28:04.939Z,15.00
2023-02-11T19:30:31.811Z,14.40
2023-02-11T19:32:58.429Z,14.80
2023-02-11T19:35:25.606Z,14.80
2023-02-11T19:37:52.315Z,16.00
2023-02-11T19:40:21.227Z,17.40
2023-02-11T19:42:50.673Z,16.10
2023-02-11T19:45:17.481Z,17.70
2023-02-11T19:47:44.469Z,16.40
2023-02-11T19:50:11.624Z,14.70
2023-02-11T19:52:39.090Z,12.60
2023-02-11T19:55:06.394Z,14.50
2023-02-11T19:57:33.078Z,15.30
2023-02-11T19:59:59.759Z,16.20
2023-02-11T20:02:26.410Z,17.40
2023-02-11T20:04:53.096Z,14.70
2023-02-11T20:07:19.762Z,14.80
2023-02-11T20:09:46.364Z,14.80
2023-02-11T20:12:13.132Z,14.80
2023-02-11T20:14:39.750Z,14.00
2023-02-11T20:17:06.492Z,13.90
2023-02-11T20:19:33.143Z,13.60
2023-02-11T20:21:59.747Z,14.40
2023-02-11T20:24:26.590Z,13.30
2023-02-11T20:26:56.051Z,12.20
2023-02-11T20:29:24.515Z,14.20
2023-02-11T20:31:51.259Z,13.50
2023-02-11T20:34:18.297Z,14.50
2023-02-11T20:36:51.965Z,15.60
2023-02-11T20:39:22.025Z,14.50
2023-02-11T20:41:50.241Z,13.90
2023-02-11T20:44:16.908Z,14.90
2023-02-11T20:46:46.839Z,13.20
2023-02-11T20:49:22.539Z,14.50
2023-02-11T20:51:50.100Z,13.30
2023-02-11T20:54:19.424Z,14.60
2023-02-11T20:56:48.180Z,14.90
2023-02-11T20:59:16.904Z,14.90
2023-02-11T21:01:46.509Z,13.70
2023-02-11T21:04:18.547Z,14.00
2023-02-11T21:06:47.908Z,15.40
2023-02-11T21:09:17.431Z,14.90
2023-02-11T21:11:44.125Z,14.90
2023-02-11T21:14:12.634Z,14.80
2023-02-11T21:16:40.121Z,13.20
2023-02-11T21:19:07.557Z,14.90
2023-02-11T21:21:38.886Z,16.30
2023-02-11T21:24:06.914Z,17.20
2023-02-11T21:26:35.487Z,14.20
2023-02-11T21:29:03.983Z,14.80
2023-02-11T21:31:32.470Z,15.80
2023-02-11T21:34:02.083Z,15.60
2023-02-11T21:36:29.801Z,16.70
2023-02-11T21:38:56.756Z,13.50
2023-02-11T21:41:24.870Z,15.70
2023-02-11T21:43:52.336Z,14.40
2023-02-11T21:46:20.502Z,14.10
2023-02-11T21:48:48.191Z,12.70
2023-02-11T21:51:18.850Z,13.00
2023-02-11T21:53:46.002Z,13.90
2023-02-11T21:56:15.321Z,14.00
2023-02-11T21:58:42.310Z,14.40
2023-02-11T22:01:20.251Z,13.20
2023-02-11T22:03:47.319Z,11.40
2023-02-11T22:06:17.534Z,12.30
2023-02-11T22:08:44.758Z,11.90
2023-02-11T22:11:13.365Z,13.80
2023-02-11T22:13:41.380Z,15.40
2023-02-11T22:16:11.325Z,15.40
2023-02-11T22:18:38.327Z,15.70
2023-02-11T22:21:07.340Z,12.60
2023-02-11T22:23:34.670Z,12.40
2023-02-11T22:26:05.886Z,10.20
2023-02-11T22:28:33.081Z,10.60
2023-02-11T22:31:00.202Z,12.50
2023-02-11T22:33:28.682Z,11.20
2023-02-11T22:36:04.693Z,11.30
2023-02-11T22:38:33.255Z,9.60
2023-02-11T22:41:05.087Z,10.30
2023-02-11T22:43:31.927Z,9.20
2023-02-11T22:46:03.250Z,10.00
2023-02-11T22:48:30.390Z,10.70
2023-02-11T22:50:57.161Z,11.20
2023-02-11T22:53:25.646Z,10.90
2023-02-11T22:55:52.605Z,12.20
2023-02-11T22:58:19.432Z,9.50
2023-02-11T23:00:46.077Z,11.20
2023-02-11T23:03:13.469Z,11.00
2023-02-11T23:05:41.900Z,9.50
2023-02-11T23:08:10.708Z,11.40
2023-02-11T23:10:39.820Z,12.10
2023-02-11T23:13:07.707Z,10.10
2023-02-11T23:15:38.535Z,9.80
2023-02-11T23:18:05.461Z,11.30
2023-02-11T23:20:35.438Z,11.40
2023-02-11T23:23:03.072Z,10.70
2023-02-11T23:25:30.261Z,11.80
2023-02-11T23:27:57.658Z,13.70
2023-02-11T23:30:24.760Z,14.30
2023-02-11T23:32:52.328Z,11.90
2023-02-11T23:35:24.900Z,12.20
2023-02-11T23:37:54.174Z,11.90
2023-02-11T23:40:22.733Z,11.60
2023-02-11T23:42:49.336Z,12.50
2023-02-11T23:45:16.030Z,11.40
2023-02-11T23:47:42.716Z,10.80
2023-02-11T23:50:10.199Z,11.70
2023-02-11T23:52:37.562Z,10.40
2023-02-11T23:55:05.051Z,10.60
2023-02-11T23:57:33.024Z,10.80
2023-02-11T23:59:59.669Z,10.40
